»·PEaware :: N74TW KGEG-KHQM

N74TW :: KGEG-KHQM

FLIGHT INFORMATION

Flight Status: Arrived
Operator: Privately registered:
United States
More flights under this callsign
Pilot: Kelly C. (19495)
Aircraft: SOCATA TBM-900
(TBM9)
More flights by this aircraft type
Origin: KGEG Spokane Intl
United States
Destination: KHQM Bowerman
United States
More flights between these airports :: More routes between these airports
Route: +GEG 2W3
File this flight plan on PilotEdge
Remarks:
Altitude:
(Current/Filed)
16,500ft
Speed:
(Current/Filed)
275kts
Departed: 22-May-20 02:55 PM
Arrived: 22-May-20 04:02 PM
Distance/Time
Traveled:
263nm/1:07
Distance/Time
To Go:
Arrived

Flight Plot

Page will automatically refresh every two minutes.

Flight plan parsing failed; only flown route is shown


Map Options




Map Legend


Flown Route
Filed Route
Departure Airport
Arrival Airport
Navaid (VOR, NDB)
Fix

Horizontal Profiles

Position Reports

Time Latitude Longitude Heading Altitude Ground
Speed
22-May-20 14:32 47.620742 -117.526803 270 2361ft 0kts
22-May-20 14:33 47.620742 -117.526803 270 2361ft 0kts
22-May-20 14:34 47.620742 -117.526803 270 2361ft 0kts
22-May-20 14:35 47.620742 -117.526803 270 2361ft 0kts
22-May-20 14:36 47.620742 -117.526803 270 2361ft 0kts
22-May-20 14:37 47.620742 -117.526803 270 2361ft 0kts
22-May-20 14:38 47.620742 -117.526803 270 2361ft 0kts
22-May-20 14:39 47.620742 -117.526803 270 2361ft 0kts
22-May-20 14:40 47.620742 -117.526803 270 2361ft 0kts
22-May-20 14:41 47.620742 -117.526803 270 2361ft 0kts
22-May-20 14:42 47.620742 -117.526803 270 2361ft 0kts
22-May-20 14:43 47.620742 -117.526803 270 2361ft 0kts
22-May-20 14:44 47.620742 -117.526803 270 2361ft 0kts
22-May-20 14:44 47.620742 -117.526803 270 2361ft 0kts
22-May-20 14:46 47.620742 -117.526803 270 2361ft 0kts
22-May-20 14:47 47.620742 -117.526803 270 2361ft 0kts
22-May-20 14:47 47.620742 -117.526803 270 2361ft 0kts
22-May-20 14:48 47.620742 -117.526803 270 2361ft 0kts
22-May-20 14:49 47.621609 -117.529208 19 2359ft 14kts
22-May-20 14:50 47.624860 -117.524487 45 2348ft 12kts
22-May-20 14:51 47.628182 -117.519395 44 2331ft 18kts
22-May-20 14:52 47.630437 -117.517392 312 2321ft 0kts
22-May-20 14:53 47.630951 -117.518660 227 2321ft 0kts
22-May-20 14:54 47.615344 -117.543563 226 3339ft 127kts
22-May-20 14:55 47.589749 -117.585523 226 5551ft 140kts
22-May-20 14:56 47.562681 -117.628509 227 7670ft 144kts
22-May-20 14:57 47.533263 -117.671751 227 9543ft 153kts
22-May-20 14:58 47.508564 -117.723412 264 11118ft 162kts
22-May-20 14:59 47.501360 -117.792605 263 13034ft 174kts
22-May-20 15:00 47.493046 -117.862846 264 15271ft 174kts
22-May-20 15:01 47.484040 -117.937934 264 16534ft 213kts
22-May-20 15:02 47.471918 -118.037156 263 16510ft 263kts
22-May-20 15:03 47.458298 -118.147790 263 16500ft 273kts
22-May-20 15:04 47.444447 -118.259542 263 16499ft 272kts
22-May-20 15:05 47.430495 -118.371181 263 16499ft 272kts
22-May-20 15:06 47.416407 -118.482957 263 16499ft 272kts
22-May-20 15:07 47.402274 -118.594196 263 16499ft 272kts
22-May-20 15:08 47.387960 -118.705930 263 16501ft 273kts
22-May-20 15:09 47.373498 -118.817851 263 16499ft 273kts
22-May-20 15:10 47.358936 -118.929709 263 16479ft 274kts
22-May-20 15:11 47.344357 -119.040827 263 16458ft 274kts
22-May-20 15:12 47.329574 -119.152592 263 16454ft 274kts
22-May-20 15:13 47.314659 -119.264475 263 16455ft 274kts
22-May-20 15:14 47.299624 -119.376360 263 16454ft 274kts
22-May-20 15:15 47.284574 -119.487490 263 16454ft 275kts
22-May-20 15:16 47.269393 -119.598735 263 16455ft 275kts
22-May-20 15:17 47.254043 -119.710304 263 16456ft 275kts
22-May-20 15:18 47.238537 -119.822250 263 16456ft 276kts
22-May-20 15:19 47.222976 -119.933696 263 16455ft 276kts
22-May-20 15:20 47.207284 -120.045129 263 16465ft 275kts
22-May-20 15:21 47.191569 -120.156080 263 16508ft 275kts
22-May-20 15:22 47.175822 -120.266411 263 16538ft 275kts
22-May-20 15:23 47.159899 -120.377170 263 16538ft 276kts
22-May-20 15:24 47.143869 -120.487796 263 16538ft 276kts
22-May-20 15:25 47.127727 -120.598395 263 16538ft 275kts
22-May-20 15:26 47.111579 -120.708284 263 16539ft 276kts
22-May-20 15:27 47.095164 -120.819183 263 16539ft 276kts
22-May-20 15:28 47.079419 -120.924784 263 16540ft 277kts
22-May-20 15:29 47.063047 -121.033908 263 16553ft 277kts
22-May-20 15:30 47.046545 -121.143112 263 16578ft 277kts
22-May-20 15:31 47.029891 -121.252538 263 16595ft 277kts
22-May-20 15:32 47.013066 -121.362377 263 16594ft 277kts
22-May-20 15:33 46.996156 -121.472037 263 16488ft 281kts
22-May-20 15:34 46.978956 -121.582719 263 16466ft 279kts
22-May-20 15:35 46.961835 -121.692205 262 16467ft 278kts
22-May-20 15:36 46.944447 -121.802648 262 16468ft 278kts
22-May-20 15:37 46.927106 -121.912048 262 16468ft 279kts
22-May-20 15:38 46.909392 -122.023062 262 16487ft 278kts
22-May-20 15:39 46.892384 -122.130530 263 16504ft 277kts
22-May-20 15:40 46.875168 -122.240919 263 16515ft 277kts
22-May-20 15:41 46.858023 -122.351511 263 16519ft 276kts
22-May-20 15:42 46.850455 -122.459963 287 16525ft 254kts
22-May-20 15:43 46.861015 -122.557956 283 15553ft 246kts
22-May-20 15:44 46.869973 -122.661432 281 14422ft 254kts
22-May-20 15:45 46.878751 -122.765114 281 13288ft 256kts
22-May-20 15:46 46.887346 -122.867576 280 12164ft 254kts
22-May-20 15:47 46.895902 -122.970776 279 11034ft 253kts
22-May-20 15:48 46.904118 -123.071140 278 9928ft 240kts
22-May-20 15:49 46.911923 -123.167569 277 8873ft 236kts
22-May-20 15:50 46.919561 -123.263253 277 7828ft 235kts
22-May-20 15:51 46.927205 -123.359722 277 6773ft 229kts
22-May-20 15:52 46.934431 -123.451839 276 5766ft 220kts
22-May-20 15:53 46.941146 -123.538377 276 4818ft 205kts
22-May-20 15:54 46.947583 -123.622109 276 3907ft 195kts
22-May-20 15:55 46.953382 -123.698254 275 3070ft 173kts
22-May-20 15:56 46.957690 -123.754048 279 2428ft 102kts
22-May-20 15:57 46.970612 -123.797536 287 1878ft 120kts
22-May-20 15:58 46.977776 -123.841810 278 1182ft 87kts
22-May-20 15:59 46.977937 -123.878789 266 802ft 88kts
22-May-20 16:00 46.974101 -123.912120 263 300ft 89kts
22-May-20 16:01 46.971147 -123.937107 260 18ft 22kts
22-May-20 16:02 46.972349 -123.935781 79 17ft 23kts
22-May-20 16:03 46.973128 -123.929561 91 17ft 15kts
22-May-20 16:04 46.973563 -123.929285 320 16ft 5kts
22-May-20 16:05 46.973560 -123.929495 166 16ft 0kts
22-May-20 16:06 46.973560 -123.929495 166 16ft 0kts

Navigation Log

Ident Type
Flight plan parsing failed, navigation log unavailable